Time;durP1;ratioP1;P1;durP2;ratioP2;P2;SDS_P1;SDS_P2;PMS_P1;PMS_P2;Temp;Humidity;BMP_temperature;BMP_pressure;BME280_temperature;BME280_humidity;BME280_pressure;Samples;Min_cycle;Max_cycle;Signal;HPM_P1;HPM_P2
2021/09/17 00:01:40;;;;;;;;;;;;;;;17.99;68.92;101639.33;1767267;81;20291;-77
2021/09/17 00:04:11;;;;;;;;;;;;;;;18.03;68.99;101631.43;1767082;81;20251;-79
2021/09/17 00:06:43;;;;;;;;;;;;;;;18.11;68.88;101628.02;1767221;81;20259;-79
2021/09/17 00:09:15;;;;;;;;;;;;;;;18.18;68.75;101620.69;1767515;81;20184;-77
2021/09/17 00:11:48;;;;;;;;;;;;;;;18.20;68.62;101623.50;1743808;82;20410;-76
2021/09/17 00:14:20;;;;;;;;;;;;;;;18.16;68.60;101620.15;1743747;82;20194;-77
2021/09/17 00:16:52;;;;;;;;;;;;;;;18.11;68.63;101608.92;1743862;82;20214;-76
2021/09/17 00:19:25;;;;;;;;;;;;;;;18.07;68.69;101607.25;1755806;81;20194;-77
2021/09/17 00:21:56;;;;;;;;;;;;;;;18.01;68.83;101605.59;1769205;81;20244;-78
2021/09/17 00:24:29;;;;;;;;;;;;;;;17.96;69.09;101606.16;1776035;81;20191;-79
2021/09/17 00:27:01;;;;;;;;;;;;;;;17.91;69.35;101609.83;1762767;80;20184;-78
2021/09/17 00:29:34;;;;;;;;;;;;;;;17.95;69.51;101608.69;1711288;84;20264;-76
2021/09/17 00:32:07;;;;;;;;;;;;;;;18.00;69.55;101608.67;1710683;82;20200;-77
2021/09/17 00:34:39;;;;;;;;;;;;;;;18.03;69.49;101601.91;1710235;84;20192;-75
2021/09/17 00:37:10;;;;;;;;;;;;;;;18.02;69.46;101596.57;1710296;84;20739;-78
2021/09/17 00:39:41;;;;;;;;;;;;;;;18.00;69.47;101604.46;1710256;84;20231;-77
2021/09/17 00:42:14;;;;;;;;;;;;;;;17.98;69.51;101601.11;1710486;84;20220;-79
2021/09/17 00:44:45;;;;;;;;;;;;;;;17.94;69.57;101602.25;1710803;84;20263;-78
2021/09/17 00:47:17;;;;;;;;;;;;;;;17.91;69.71;101601.98;1710316;84;20256;-78
2021/09/17 00:49:49;;;;;;;;;;;;;;;17.89;69.88;101596.64;1710286;84;20192;-78
2021/09/17 00:52:21;;;;;;;;;;;;;;;17.95;69.97;101595.49;1711069;83;20260;-79
2021/09/17 00:54:52;;;;;;;;;;;;;;;17.99;69.93;101587.33;1710526;83;20264;-76
2021/09/17 00:57:24;;;;;;;;;;;;;;;18.03;69.83;101583.64;1710451;82;20544;-78
2021/09/17 00:59:55;;;;;;;;;;;;;;;18.02;69.74;101581.11;1690888;84;20184;-78
2021/09/17 01:02:26;;;;;;;;;;;;;;;18.01;69.76;101582.25;1711579;83;20548;-79
2021/09/17 01:04:58;;;;;;;;;;;;;;;17.96;69.80;101578.05;1688783;85;20272;-77
2021/09/17 01:07:33;;;;;;;;;;;;;;;17.92;69.94;101574.16;1688463;83;20341;-76
2021/09/17 01:10:07;;;;;;;;;;;;;;;17.87;70.09;101565.15;1703966;84;20231;-77
2021/09/17 01:12:39;;;;;;;;;;;;;;;17.88;70.22;101565.45;1710261;84;20230;-77
2021/09/17 01:15:13;;;;;;;;;;;;;;;17.91;70.25;101558.42;1710316;84;20196;-77
2021/09/17 01:17:46;;;;;;;;;;;;;;;17.96;70.17;101556.97;1710212;84;20204;-76
2021/09/17 01:20:20;;;;;;;;;;;;;;;18.01;70.06;101559.76;1710334;84;20204;-76
2021/09/17 01:22:53;;;;;;;;;;;;;;;18.01;69.94;101552.73;1710159;84;20204;-76
2021/09/17 01:25:25;;;;;;;;;;;;;;;17.99;69.94;101550.78;1710250;83;20231;-77
2021/09/17 01:28:01;;;;;;;;;;;;;;;17.95;70.01;101549.67;1720382;82;20203;-77
2021/09/17 01:30:33;;;;;;;;;;;;;;;17.91;70.13;101548.00;1720976;82;20191;-76
2021/09/17 01:33:05;;;;;;;;;;;;;;;17.92;70.25;101550.27;1716168;83;20266;-77
2021/09/17 01:35:37;;;;;;;;;;;;;;;17.93;70.29;101540.11;1722140;82;20267;-75
2021/09/17 01:38:09;;;;;;;;;;;;;;;17.98;70.18;101535.88;1700465;83;20631;-77
2021/09/17 01:40:40;;;;;;;;;;;;;;;18.01;70.14;101539.53;1723051;82;20596;-74
2021/09/17 01:43:13;;;;;;;;;;;;;;;17.99;70.11;101533.92;1721715;82;20191;-74
2021/09/17 01:45:46;;;;;;;;;;;;;;;17.95;70.11;101534.20;1723185;81;20160;-75
2021/09/17 01:48:19;;;;;;;;;;;;;;;17.88;70.20;101532.28;1722806;82;20190;-74
2021/09/17 01:50:52;;;;;;;;;;;;;;;17.84;70.34;101529.77;1723104;80;20239;-74
2021/09/17 01:53:24;;;;;;;;;;;;;;;17.81;70.51;101536.80;1724768;81;20202;-75
2021/09/17 01:55:56;;;;;;;;;;;;;;;17.77;70.70;101523.61;1719290;82;20250;-75
2021/09/17 01:58:27;;;;;;;;;;;;;;;17.80;70.75;101523.06;1713688;83;20260;-75
2021/09/17 02:01:01;;;;;;;;;;;;;;;17.82;70.65;101519.38;1709548;83;20217;-76
2021/09/17 02:03:33;;;;;;;;;;;;;;;17.82;70.60;101526.41;1709394;84;20189;-77
2021/09/17 02:06:05;;;;;;;;;;;;;;;17.79;70.60;101515.17;1709468;83;20189;-74
2021/09/17 02:08:38;;;;;;;;;;;;;;;17.74;70.67;101515.20;1713895;82;20270;-77
2021/09/17 02:11:09;;;;;;;;;;;;;;;17.72;70.78;101516.61;1722123;82;20287;-75
2021/09/17 02:13:42;;;;;;;;;;;;;;;17.69;70.99;101517.20;1724524;82;20222;-79
2021/09/17 02:16:14;;;;;;;;;;;;;;;17.70;71.11;101512.70;1722950;82;20689;-74
2021/09/17 02:18:47;;;;;;;;;;;;;;;17.70;71.10;101504.83;1721537;82;20203;-75
2021/09/17 02:21:23;;;;;;;;;;;;;;;17.71;71.12;101507.91;1722375;82;20259;-74
2021/09/17 02:23:58;;;;;;;;;;;;;;;17.69;71.08;101508.19;1722161;83;20560;-76
2021/09/17 02:26:30;;;;;;;;;;;;;;;17.66;71.19;101500.34;1721719;83;20596;-76
2021/09/17 02:29:02;;;;;;;;;;;;;;;17.64;71.24;101505.42;1718840;82;20282;-76
2021/09/17 02:31:33;;;;;;;;;;;;;;;17.63;71.40;101505.70;1708917;83;20271;-83
2021/09/17 02:34:05;;;;;;;;;;;;;;;17.60;71.62;101501.50;1708316;83;20194;-82
2021/09/17 02:36:37;;;;;;;;;;;;;;;17.58;71.77;101499.55;1708865;83;20196;-82
2021/09/17 02:39:11;;;;;;;;;;;;;;;17.60;71.88;101497.28;1695922;82;20709;-83
2021/09/17 02:41:42;;;;;;;;;;;;;;;17.63;71.79;101503.72;1749672;79;20249;-76
2021/09/17 02:44:14;;;;;;;;;;;;;;;17.66;71.76;101503.71;1763977;81;20214;-74
2021/09/17 02:46:46;;;;;;;;;;;;;;;17.65;71.71;101506.25;1758656;81;20548;-76
2021/09/17 02:49:18;;;;;;;;;;;;;;;17.62;71.63;101504.03;1760686;81;20257;-75
2021/09/17 02:51:51;;;;;;;;;;;;;;;17.62;71.76;101501.22;1760791;81;20612;-75
2021/09/17 02:54:23;;;;;;;;;;;;;;;17.66;71.69;101500.91;1760896;81;20573;-77
2021/09/17 02:56:56;;;;;;;;;;;;;;;17.68;71.71;101501.48;1771787;80;20528;-83
2021/09/17 02:59:28;;;;;;;;;;;;;;;17.70;71.63;101497.80;1770296;80;20192;-82
2021/09/17 03:02:03;;;;;;;;;;;;;;;17.69;71.54;101498.94;1767456;80;20199;-75
2021/09/17 03:04:35;;;;;;;;;;;;;;;17.66;71.69;101503.71;1756815;80;20287;-80
2021/09/17 03:07:09;;;;;;;;;;;;;;;17.63;71.76;101496.70;1761628;81;20226;-85
2021/09/17 03:09:40;;;;;;;;;;;;;;;17.61;71.89;101496.73;1759921;78;20374;-80
2021/09/17 03:12:12;;;;;;;;;;;;;;;17.61;72.06;101500.95;1772225;80;20184;-82
2021/09/17 03:14:46;;;;;;;;;;;;;;;17.56;72.29;101496.17;1774715;80;20231;-81
2021/09/17 03:17:22;;;;;;;;;;;;;;;17.61;72.60;101493.92;1775624;81;20234;-81
2021/09/17 03:20:06;;;;;;;;;;;;;;;17.65;72.64;101493.61;1775217;80;20549;-81
2021/09/17 03:22:44;;;;;;;;;;;;;;;17.71;72.67;101493.86;1775185;80;20540;-81
2021/09/17 03:25:16;;;;;;;;;;;;;;;17.77;72.63;101489.34;1757832;81;20288;-78
2021/09/17 03:27:49;;;;;;;;;;;;;;;17.82;72.63;101488.47;1773340;81;20184;-78
2021/09/17 03:30:24;;;;;;;;;;;;;;;17.84;72.69;101486.20;1783130;79;20236;-78
2021/09/17 03:32:57;;;;;;;;;;;;;;;17.89;72.71;101487.03;1774891;80;20192;-79
2021/09/17 03:35:29;;;;;;;;;;;;;;;17.94;72.75;101483.34;1761046;81;20319;-76
2021/09/17 03:38:01;;;;;;;;;;;;;;;17.98;72.71;101483.88;1769429;81;21331;-78
2021/09/17 03:40:36;;;;;;;;;;;;;;;17.98;72.64;101483.06;1766290;80;20283;-78
2021/09/17 03:43:09;;;;;;;;;;;;;;;17.91;72.70;101481.13;1764809;81;20271;-74
2021/09/17 03:45:41;;;;;;;;;;;;;;;17.80;72.95;101486.53;1773881;80;20184;-77
2021/09/17 03:48:13;;;;;;;;;;;;;;;17.67;73.52;101476.74;1774335;81;20581;-77
2021/09/17 03:50:44;;;;;;;;;;;;;;;17.56;74.41;101478.49;1774173;81;20215;-76
2021/09/17 03:53:17;;;;;;;;;;;;;;;17.52;75.54;101473.16;1774399;81;20628;-77
2021/09/17 03:55:48;;;;;;;;;;;;;;;17.51;76.01;101472.89;1769489;81;20688;-78
2021/09/17 03:58:22;;;;;;;;;;;;;;;17.54;75.83;101472.30;1770407;81;20212;-77
2021/09/17 04:00:55;;;;;;;;;;;;;;;17.59;75.75;101479.30;1750533;79;20680;-75
2021/09/17 04:03:27;;;;;;;;;;;;;;;17.65;75.59;101473.39;1774312;79;20176;-78
2021/09/17 04:05:59;;;;;;;;;;;;;;;17.77;75.34;101475.30;1772512;79;20244;-76
2021/09/17 04:08:30;;;;;;;;;;;;;;;17.92;75.27;101471.56;1773016;81;20180;-78
2021/09/17 04:11:02;;;;;;;;;;;;;;;18.05;75.12;101468.11;1764880;79;20153;-76
2021/09/17 04:13:34;;;;;;;;;;;;;;;18.15;75.05;101466.06;1761809;79;20252;-78
2021/09/17 04:16:07;;;;;;;;;;;;;;;18.24;74.93;101467.70;1762070;80;20220;-77
2021/09/17 04:18:38;;;;;;;;;;;;;;;18.26;75.07;101471.04;1747000;80;20249;-78
2021/09/17 04:21:11;;;;;;;;;;;;;;;18.31;75.17;101466.83;1749412;81;20584;-78
2021/09/17 04:23:44;;;;;;;;;;;;;;;18.35;75.26;101465.12;1764256;79;20192;-78
2021/09/17 04:26:15;;;;;;;;;;;;;;;18.43;75.37;101463.93;1762219;80;20573;-74
2021/09/17 04:28:48;;;;;;;;;;;;;;;18.55;75.48;101461.58;1758113;80;20545;-76
2021/09/17 04:31:22;;;;;;;;;;;;;;;18.69;75.50;101456.08;1758266;81;20279;-79
2021/09/17 04:33:53;;;;;;;;;;;;;;;18.80;75.53;101456.27;1757202;80;20271;-73
2021/09/17 04:36:25;;;;;;;;;;;;;;;18.89;75.57;101462.36;1754956;81;20268;-75
2021/09/17 04:38:57;;;;;;;;;;;;;;;18.94;75.62;101460.05;1767764;79;20307;-80
2021/09/17 04:41:29;;;;;;;;;;;;;;;19.01;75.78;101453.53;1760075;81;20272;-79
2021/09/17 04:44:01;;;;;;;;;;;;;;;19.08;75.89;101452.61;1756796;79;20650;-76
2021/09/17 04:46:33;;;;;;;;;;;;;;;19.15;76.09;101455.31;1737485;81;20266;-77
2021/09/17 04:49:04;;;;;;;;;;;;;;;19.25;76.28;101448.20;1762169;81;20248;-77
2021/09/17 04:51:39;;;;;;;;;;;;;;;19.42;76.19;101450.53;1762416;81;20267;-83
2021/09/17 04:54:13;;;;;;;;;;;;;;;19.56;75.95;101450.91;1734246;80;20182;-76
2021/09/17 04:56:45;;;;;;;;;;;;;;;19.71;75.68;101454.11;1758937;81;20289;-76
2021/09/17 04:59:16;;;;;;;;;;;;;;;19.81;75.45;101455.39;1777466;80;20258;-75
2021/09/17 05:01:49;;;;;;;;;;;;;;;19.87;75.53;101455.58;1785868;79;20621;-76
2021/09/17 05:04:21;;;;;;;;;;;;;;;19.95;75.31;101454.89;1760021;81;20263;-73
2021/09/17 05:06:54;;;;;;;;;;;;;;;20.04;75.22;101445.45;1761805;81;20319;-75
2021/09/17 05:09:30;;;;;;;;;;;;;;;20.22;75.10;101441.81;1761387;81;20188;-74
2021/09/17 05:12:03;;;;;;;;;;;;;;;20.49;74.69;101436.27;1756961;80;20192;-77
2021/09/17 05:14:37;;;;;;;;;;;;;;;20.76;73.97;101441.17;1757855;80;20212;-76
2021/09/17 05:17:09;;;;;;;;;;;;;;;21.12;72.96;101447.30;1753191;80;20539;-77
2021/09/17 05:19:43;;;;;;;;;;;;;;;21.52;71.18;101436.56;1747585;80;20268;-77
2021/09/17 05:22:17;;;;;;;;;;;;;;;21.98;70.22;101440.67;1722779;81;20232;-78
2021/09/17 05:24:49;;;;;;;;;;;;;;;22.47;69.29;101444.32;1750140;82;20407;-78
2021/09/17 05:27:21;;;;;;;;;;;;;;;22.94;66.60;101439.97;1754748;81;20196;-78
2021/09/17 05:29:54;;;;;;;;;;;;;;;23.27;63.40;101447.00;1754869;81;20193;-79
2021/09/17 05:32:26;;;;;;;;;;;;;;;23.41;61.96;101446.33;1761302;80;20183;-75
2021/09/17 05:34:57;;;;;;;;;;;;;;;23.53;60.86;101447.36;1787599;80;20247;-76
2021/09/17 05:37:29;;;;;;;;;;;;;;;23.67;60.17;101445.83;1770162;80;20352;-77
2021/09/17 05:40:00;;;;;;;;;;;;;;;23.95;60.16;101439.58;1754194;81;20186;-77
2021/09/17 05:42:34;;;;;;;;;;;;;;;24.29;58.30;101435.94;1755955;80;20261;-81
2021/09/17 05:45:07;;;;;;;;;;;;;;;24.57;57.59;101438.72;1737079;79;20244;-83
2021/09/17 05:47:42;;;;;;;;;;;;;;;24.81;56.23;101432.73;1755296;82;20196;-85
2021/09/17 05:50:14;;;;;;;;;;;;;;;25.00;56.29;101430.95;1754864;82;20265;-77
2021/09/17 05:52:46;;;;;;;;;;;;;;;25.15;53.63;101433.23;1758022;79;20291;-76
2021/09/17 05:55:17;;;;;;;;;;;;;;;25.39;52.14;101429.23;1764543;79;20606;-78
2021/09/17 05:57:50;;;;;;;;;;;;;;;25.62;49.69;101426.36;1777149;79;20215;-76
2021/09/17 06:00:22;;;;;;;;;;;;;;;25.79;48.25;101431.97;1775596;79;20209;-77
2021/09/17 06:02:54;;;;;;;;;;;;;;;25.90;47.14;101441.81;1767862;79;20177;-76
2021/09/17 06:05:26;;;;;;;;;;;;;;;26.04;46.52;101435.27;1757440;79;20344;-77
2021/09/17 06:08:00;;;;;;;;;;;;;;;26.13;44.94;101436.87;1767213;79;20699;-79
2021/09/17 06:10:32;;;;;;;;;;;;;;;26.17;44.94;101427.03;1742844;81;20644;-79
2021/09/17 06:13:04;;;;;;;;;;;;;;;26.32;44.90;101431.52;1754514;79;20177;-77
2021/09/17 06:15:35;;;;;;;;;;;;;;;26.49;43.96;101423.41;1760201;81;20184;-78
2021/09/17 06:18:12;;;;;;;;;;;;;;;26.60;42.76;101417.55;1753744;79;20237;-77
2021/09/17 06:20:45;;;;;;;;;;;;;;;26.64;42.38;101413.64;1755226;79;20237;-77
2021/09/17 06:23:17;;;;;;;;;;;;;;;26.64;42.91;101409.36;1771817;79;20653;-75
2021/09/17 06:25:48;;;;;;;;;;;;;;;26.75;42.14;101409.78;1744105;81;20259;-77
2021/09/17 06:28:27;;;;;;;;;;;;;;;26.83;41.97;101412.52;1742672;81;20221;-77
2021/09/17 06:30:59;;;;;;;;;;;;;;;26.90;41.33;101417.66;1769344;79;20250;-75
2021/09/17 06:33:30;;;;;;;;;;;;;;;26.89;41.29;101407.44;1775693;79;20241;-76
2021/09/17 06:36:02;;;;;;;;;;;;;;;26.81;41.18;101415.51;1767548;79;20315;-77
2021/09/17 06:38:33;;;;;;;;;;;;;;;26.76;40.99;101404.31;1760836;81;20517;-76
2021/09/17 06:41:06;;;;;;;;;;;;;;;26.73;41.38;101407.86;1766463;79;20255;-76
2021/09/17 06:43:41;;;;;;;;;;;;;;;26.78;41.46;101404.79;1734218;81;20654;-76
2021/09/17 06:46:12;;;;;;;;;;;;;;;26.82;40.74;101409.43;1768508;79;20283;-77
2021/09/17 06:48:44;;;;;;;;;;;;;;;26.75;40.40;101406.94;1756443;79;20201;-78
2021/09/17 06:51:17;;;;;;;;;;;;;;;26.64;39.83;101408.55;1774005;79;20221;-76
2021/09/17 06:53:49;;;;;;;;;;;;;;;26.54;39.97;101406.97;1773109;79;20293;-76
2021/09/17 06:56:20;;;;;;;;;;;;;;;26.48;40.31;101407.48;1778914;79;20212;-75
2021/09/17 06:58:53;;;;;;;;;;;;;;;26.38;40.09;101403.63;1750971;80;20183;-77
2021/09/17 07:01:25;;;;;;;;;;;;;;;26.20;40.46;101401.53;1768643;79;20182;-77
2021/09/17 07:03:57;;;;;;;;;;;;;;;26.10;40.95;101401.94;1772648;79;20305;-76
2021/09/17 07:06:33;;;;;;;;;;;;;;;26.03;41.64;101400.24;1755567;79;20191;-77
2021/09/17 07:09:10;;;;;;;;;;;;;;;26.05;41.96;101405.02;1750473;80;20217;-77
2021/09/17 07:11:43;;;;;;;;;;;;;;;26.00;41.87;101405.80;1778499;79;20221;-77
2021/09/17 07:14:16;;;;;;;;;;;;;;;25.91;42.33;101413.59;1774939;79;21090;-76
2021/09/17 07:16:51;;;;;;;;;;;;;;;25.84;42.50;101407.58;1757622;79;20273;-76
2021/09/17 07:19:23;;;;;;;;;;;;;;;25.80;42.55;101404.59;1780648;79;20181;-75
2021/09/17 07:21:55;;;;;;;;;;;;;;;25.71;42.76;101403.79;1773491;79;20215;-76
2021/09/17 07:24:29;;;;;;;;;;;;;;;25.67;42.72;101400.56;1771738;79;20186;-75
2021/09/17 07:27:02;;;;;;;;;;;;;;;25.67;42.50;101398.53;1775433;79;20176;-77
2021/09/17 07:29:37;;;;;;;;;;;;;;;25.73;42.25;101400.61;1771044;79;20177;-76
2021/09/17 07:32:09;;;;;;;;;;;;;;;25.79;41.77;101397.20;1780764;79;20608;-77
2021/09/17 07:34:40;;;;;;;;;;;;;;;25.83;41.60;101407.30;1782771;79;20403;-76
2021/09/17 07:37:12;;;;;;;;;;;;;;;25.80;41.67;101403.73;1781736;79;20249;-77
2021/09/17 07:39:45;;;;;;;;;;;;;;;25.80;41.74;101400.89;1769507;79;20207;-78
2021/09/17 07:42:20;;;;;;;;;;;;;;;25.78;41.92;101398.99;1779739;79;20270;-77
2021/09/17 07:44:51;;;;;;;;;;;;;;;25.75;40.46;101393.39;1780134;79;20608;-75
2021/09/17 07:47:25;;;;;;;;;;;;;;;25.69;40.42;101392.50;1774390;79;20245;-77
2021/09/17 07:49:57;;;;;;;;;;;;;;;25.65;40.47;101385.82;1781332;79;20309;-76
2021/09/17 07:52:28;;;;;;;;;;;;;;;25.67;40.00;101377.80;1768365;79;20302;-76
2021/09/17 07:55:01;;;;;;;;;;;;;;;25.70;39.73;101377.94;1782788;79;20236;-77
2021/09/17 07:57:33;;;;;;;;;;;;;;;25.72;40.09;101376.99;1789722;79;20259;-78
2021/09/17 08:00:06;;;;;;;;;;;;;;;25.75;40.03;101372.63;1761010;79;20255;-75
2021/09/17 08:02:40;;;;;;;;;;;;;;;25.73;40.17;101374.99;1771902;79;20312;-76
2021/09/17 08:05:14;;;;;;;;;;;;;;;25.72;40.58;101373.33;1770383;79;20244;-76
2021/09/17 08:07:46;;;;;;;;;;;;;;;25.75;40.27;101375.47;1774726;79;20192;-76
2021/09/17 08:10:21;;;;;;;;;;;;;;;25.72;39.75;101375.57;1774647;79;20227;-74
2021/09/17 08:12:54;;;;;;;;;;;;;;;25.67;39.93;101370.07;1765459;80;20218;-81
2021/09/17 08:15:27;;;;;;;;;;;;;;;25.63;39.82;101368.27;1772141;79;20249;-77
2021/09/17 08:17:59;;;;;;;;;;;;;;;25.59;39.66;101375.23;1783613;79;20197;-79
2021/09/17 08:20:32;;;;;;;;;;;;;;;25.53;39.06;101361.57;1780985;79;20184;-77
2021/09/17 08:23:03;;;;;;;;;;;;;;;25.47;38.97;101358.67;1775743;79;20284;-76
2021/09/17 08:25:35;;;;;;;;;;;;;;;25.46;39.04;101360.67;1784770;79;20190;-76
2021/09/17 08:28:07;;;;;;;;;;;;;;;25.44;38.99;101358.77;1765450;79;20180;-79
2021/09/17 08:30:38;;;;;;;;;;;;;;;25.40;39.34;101363.47;1779568;79;20253;-74
2021/09/17 08:33:11;;;;;;;;;;;;;;;25.39;39.36;101362.39;1778534;79;20578;-78
2021/09/17 08:35:43;;;;;;;;;;;;;;;25.36;39.37;101362.48;1786277;79;20662;-78
2021/09/17 08:38:15;;;;;;;;;;;;;;;25.39;39.72;101358.97;1789375;79;20288;-77
2021/09/17 08:40:47;;;;;;;;;;;;;;;25.42;39.68;101355.41;1762301;79;20703;-79
2021/09/17 08:43:18;;;;;;;;;;;;;;;25.35;39.55;101359.39;1760467;78;20220;-75
2021/09/17 08:45:51;;;;;;;;;;;;;;;25.30;39.82;101355.92;1759211;81;20596;-75
2021/09/17 08:48:28;;;;;;;;;;;;;;;25.25;40.19;101346.16;1754929;81;20299;-75
2021/09/17 08:51:01;;;;;;;;;;;;;;;25.27;40.19;101349.48;1754524;81;20327;-77
2021/09/17 08:53:35;;;;;;;;;;;;;;;25.25;39.56;101339.05;1757307;79;20589;-74
2021/09/17 08:56:08;;;;;;;;;;;;;;;25.23;39.69;101352.14;1760613;80;20364;-75
2021/09/17 08:58:40;;;;;;;;;;;;;;;25.21;39.73;101340.87;1773179;81;20255;-76
2021/09/17 09:01:26;;;;;;;;;;;;;;;25.21;39.76;101345.13;1759545;81;20315;-76
2021/09/17 09:04:02;;;;;;;;;;;;;;;25.19;39.88;101329.02;1738716;82;20222;-75
2021/09/17 09:06:38;;;;;;;;;;;;;;;25.16;40.00;101336.78;1741910;82;20226;-74
2021/09/17 09:09:18;;;;;;;;;;;;;;;25.14;39.81;101335.73;1748903;81;20312;-75
2021/09/17 09:11:53;;;;;;;;;;;;;;;25.10;39.94;101331.89;1774108;81;20228;-75
2021/09/17 09:14:24;;;;;;;;;;;;;;;25.09;40.18;101327.96;1737322;81;20235;-75
2021/09/17 09:16:56;;;;;;;;;;;;;;;25.11;40.26;101328.47;1739856;80;20258;-76
2021/09/17 09:19:34;;;;;;;;;;;;;;;25.13;40.04;101332.64;1730682;81;20322;-76
2021/09/17 09:22:07;;;;;;;;;;;;;;;25.13;40.02;101327.53;1733415;81;20192;-77
2021/09/17 09:24:42;;;;;;;;;;;;;;;25.13;40.04;101334.64;1737940;81;20172;-75
2021/09/17 09:27:19;;;;;;;;;;;;;;;25.13;39.87;101333.22;1738292;81;20188;-75
2021/09/17 09:29:52;;;;;;;;;;;;;;;25.10;39.79;101336.16;1735470;81;20705;-77
2021/09/17 09:32:33;;;;;;;;;;;;;;;25.09;40.13;101333.65;1732929;81;20255;-77
2021/09/17 09:35:09;;;;;;;;;;;;;;;25.05;40.06;101325.58;1724048;81;20660;-79
2021/09/17 09:37:41;;;;;;;;;;;;;;;25.00;40.48;101318.66;1724871;81;20264;-77
2021/09/17 09:40:17;;;;;;;;;;;;;;;24.93;40.55;101321.20;1731754;81;20222;-76
2021/09/17 09:42:47;;;;;;;;;;;;;;;24.87;41.20;101319.72;1733600;81;20276;-76
2021/09/17 09:45:22;;;;;;;;;;;;;;;24.82;41.60;101314.22;1721726;81;20233;-75
2021/09/17 09:47:55;;;;;;;;;;;;;;;24.83;42.18;101318.15;1719454;81;20248;-76
2021/09/17 09:50:28;;;;;;;;;;;;;;;24.84;42.35;101311.28;1737268;81;20609;-75
2021/09/17 09:53:01;;;;;;;;;;;;;;;24.82;41.25;101301.42;1731983;81;20226;-76
2021/09/17 09:55:33;;;;;;;;;;;;;;;24.75;40.72;101303.97;1731882;81;21212;-76
2021/09/17 09:58:04;;;;;;;;;;;;;;;24.68;40.89;101309.34;1730826;81;20214;-73
2021/09/17 10:00:36;;;;;;;;;;;;;;;24.61;41.41;101307.59;1733199;81;20636;-76
2021/09/17 10:03:08;;;;;;;;;;;;;;;24.56;41.81;101300.06;1732426;81;20249;-77
2021/09/17 10:05:40;;;;;;;;;;;;;;;24.54;41.99;101301.56;1737250;81;20187;-76
2021/09/17 10:08:12;;;;;;;;;;;;;;;24.49;42.09;101296.06;1733006;81;20219;-78
2021/09/17 10:10:46;;;;;;;;;;;;;;;24.46;42.29;101299.02;1730456;81;20237;-77
2021/09/17 10:13:18;;;;;;;;;;;;;;;24.44;42.84;101301.95;1720064;81;20190;-76
2021/09/17 10:15:51;;;;;;;;;;;;;;;24.41;43.52;101295.51;1733297;83;20191;-76
2021/09/17 10:18:23;;;;;;;;;;;;;;;24.43;43.96;101290.31;1733452;81;20575;-75
2021/09/17 10:20:54;;;;;;;;;;;;;;;24.48;44.44;101297.23;1735826;81;20187;-75
2021/09/17 10:23:33;;;;;;;;;;;;;;;24.52;44.44;101292.56;1750796;81;20327;-74
2021/09/17 10:26:07;;;;;;;;;;;;;;;24.54;44.48;101295.89;1750376;81;20262;-76
2021/09/17 10:29:05;;;;;;;;;;;;;;;24.54;44.58;101284.52;1725226;81;20270;-75
2021/09/17 10:31:42;;;;;;;;;;;;;;;24.52;45.20;101289.15;1677597;84;20284;-75
2021/09/17 10:34:35;;;;;;;;;;;;;;;24.50;45.74;101282.95;1690468;83;20588;-79
2021/09/17 10:37:09;;;;;;;;;;;;;;;24.51;46.41;101285.22;1694392;84;20202;-75
2021/09/17 10:39:46;;;;;;;;;;;;;;;24.56;47.21;101282.20;1711125;83;20366;-75
2021/09/17 10:42:18;;;;;;;;;;;;;;;24.55;47.46;101274.83;1673955;83;20755;-81
2021/09/17 10:45:06;;;;;;;;;;;;;;;24.57;47.77;101266.84;1690233;83;20284;-81
2021/09/17 10:47:48;;;;;;;;;;;;;;;24.58;48.19;101263.67;1673131;83;20296;-75
2021/09/17 10:50:22;;;;;;;;;;;;;;;24.58;48.63;101253.73;1706007;83;20234;-78
2021/09/17 10:52:54;;;;;;;;;;;;;;;24.56;48.98;101252.37;1705170;83;20536;-84
2021/09/17 10:55:53;;;;;;;;;;;;;;;24.55;49.95;101260.62;1678620;84;20197;-79
2021/09/17 10:58:36;;;;;;;;;;;;;;;24.56;50.40;101259.47;1707442;83;20584;-72
2021/09/17 11:01:10;;;;;;;;;;;;;;;24.56;50.99;101256.63;1703034;83;20268;-83
2021/09/17 11:03:56;;;;;;;;;;;;;;;24.59;51.46;101248.87;1721516;82;20273;-78
2021/09/17 11:06:31;;;;;;;;;;;;;;;24.58;51.63;101252.31;1720419;82;20555;-77
2021/09/17 11:09:05;;;;;;;;;;;;;;;24.52;52.25;101233.75;1726664;83;20253;-80
2021/09/17 11:11:43;;;;;;;;;;;;;;;24.50;52.67;101242.37;1717268;83;20218;-78
2021/09/17 11:14:20;;;;;;;;;;;;;;;24.41;53.21;101231.61;1720594;82;20579;-79
2021/09/17 11:16:55;;;;;;;;;;;;;;;24.28;53.64;101221.30;1706536;83;20217;-78
2021/09/17 11:19:26;;;;;;;;;;;;;;;24.25;53.96;101220.58;1704396;83;21045;-81
2021/09/17 11:22:01;;;;;;;;;;;;;;;24.23;54.34;101221.48;1711094;81;20183;-75
2021/09/17 11:24:36;;;;;;;;;;;;;;;24.26;54.93;101222.23;1686635;83;20243;-75
2021/09/17 11:27:06;;;;;;;;;;;;;;;24.26;55.18;101220.81;1697754;84;20234;-73
2021/09/17 11:29:37;;;;;;;;;;;;;;;24.27;55.50;101217.61;1719549;82;20209;-74
2021/09/17 11:32:09;;;;;;;;;;;;;;;24.30;56.18;101218.38;1627638;86;20344;-78
2021/09/17 11:34:42;;;;;;;;;;;;;;;24.31;56.57;101219.22;1627181;88;20203;-78
2021/09/17 11:37:15;;;;;;;;;;;;;;;24.25;56.65;101209.22;1621773;88;20662;-73
2021/09/17 11:39:51;;;;;;;;;;;;;;;24.25;57.09;101221.39;1594199;88;20263;-75
2021/09/17 11:42:25;;;;;;;;;;;;;;;24.28;57.16;101209.94;1626353;88;20246;-74
2021/09/17 11:45:13;;;;;;;;;;;;;;;24.29;57.25;101207.34;1617829;88;20246;-72
2021/09/17 11:47:46;;;;;;;;;;;;;;;24.27;57.39;101209.70;1606765;88;20192;-73
2021/09/17 11:50:20;;;;;;;;;;;;;;;24.25;57.76;101195.02;1617431;88;20207;-73
2021/09/17 11:52:54;;;;;;;;;;;;;;;24.23;58.27;101203.02;1621449;87;20247;-76
2021/09/17 11:55:31;;;;;;;;;;;;;;;24.19;58.36;101197.80;1619681;88;20201;-76
2021/09/17 11:58:02;;;;;;;;;;;;;;;24.19;58.72;101205.70;1686740;82;20523;-77
2021/09/17 12:00:38;;;;;;;;;;;;;;;24.19;58.95;101204.89;1712951;82;20291;-74
2021/09/17 12:03:11;;;;;;;;;;;;;;;24.16;59.39;101197.88;1714918;82;20253;-76
2021/09/17 12:05:50;;;;;;;;;;;;;;;24.11;59.48;101195.80;1717797;82;20242;-75
2021/09/17 12:08:25;;;;;;;;;;;;;;;24.10;59.82;101191.30;1697111;82;20272;-74
2021/09/17 12:11:02;;;;;;;;;;;;;;;24.12;59.72;101195.47;1713125;82;20334;-71
2021/09/17 12:13:35;;;;;;;;;;;;;;;24.15;59.73;101178.34;1715271;82;20279;-81
2021/09/17 12:16:09;;;;;;;;;;;;;;;24.15;60.07;101168.41;1710757;82;20211;-78
2021/09/17 12:18:41;;;;;;;;;;;;;;;24.15;60.24;101175.50;1711693;82;20577;-78
2021/09/17 12:21:21;;;;;;;;;;;;;;;24.14;60.67;101173.84;1715719;82;20226;-74
2021/09/17 12:23:55;;;;;;;;;;;;;;;24.11;61.01;101168.83;1714036;82;20432;-73
2021/09/17 12:26:26;;;;;;;;;;;;;;;24.10;61.07;101160.92;1717725;82;20228;-74
2021/09/17 12:28:59;;;;;;;;;;;;;;;24.08;61.33;101174.59;1714648;82;20232;-74
2021/09/17 12:31:41;;;;;;;;;;;;;;;24.01;61.41;101172.05;1715858;82;20225;-74
2021/09/17 12:34:23;;;;;;;;;;;;;;;23.96;61.63;101167.97;1713587;82;20387;-73
2021/09/17 12:36:51;;;;;;;;;;;;;;;23.89;62.31;101165.64;1717037;82;20413;-76
2021/09/17 12:39:26;;;;;;;;;;;;;;;23.82;62.57;101148.84;1714581;82;20327;-76
2021/09/17 12:42:11;;;;;;;;;;;;;;;23.79;62.95;101162.30;1713569;82;20339;-74
2021/09/17 12:44:47;;;;;;;;;;;;;;;23.75;63.20;101166.97;1713523;82;20229;-75
2021/09/17 12:47:25;;;;;;;;;;;;;;;23.68;63.56;101155.30;1709740;82;20229;-75
2021/09/17 12:50:08;;;;;;;;;;;;;;;23.62;63.72;101156.65;1713901;82;20335;-73
2021/09/17 12:52:49;;;;;;;;;;;;;;;23.63;64.19;101159.73;1713245;82;20606;-74
2021/09/17 12:55:25;;;;;;;;;;;;;;;23.63;64.24;101149.80;1719342;82;20268;-75
2021/09/17 12:58:05;;;;;;;;;;;;;;;23.65;64.54;101154.58;1718239;82;20281;-75
2021/09/17 13:00:41;;;;;;;;;;;;;;;23.67;64.61;101153.64;1721992;82;20292;-78
2021/09/17 13:03:15;;;;;;;;;;;;;;;23.68;64.88;101145.37;1712707;82;20186;-74
2021/09/17 13:05:53;;;;;;;;;;;;;;;23.68;65.12;101154.73;1715094;82;20187;-75
2021/09/17 13:08:25;;;;;;;;;;;;;;;23.67;65.31;101143.14;1709997;82;20346;-73